Terminal Aerodrome Forecast
Issued by NWS Bismarck, ND

Home | Current Version | Previous Version | Graphics & Text | Print | Product List | Glossary On
Versions: 1 2 3 4 5 6 7 8 9 10 11 12 13 14 15 16 17 18 19 20
000
FTUS43 KBIS 141654 AAB
TAFISN
TAF AMD
KISN 141654Z 1417/1512 36008KT P6SM SCT010
     FM142000 31009KT P6SM FEW040 FEW250
     FM142200 28007KT P6SM FEW045 FEW250
     FM150200 21004KT P6SM FEW025 FEW250=

USA.gov is the U.S. government's official web portal to all federal, state and local government web resources and services.